createdAt,value
2023-04-23T00:00:29.641Z,13.80
2023-04-23T00:04:33.160Z,11.67
2023-04-23T00:08:34.945Z,12.77
2023-04-23T00:12:36.457Z,13.47
2023-04-23T00:16:39.438Z,13.60
2023-04-23T00:20:42.294Z,12.73
2023-04-23T00:24:43.755Z,13.57
2023-04-23T00:28:45.135Z,18.50
2023-04-23T00:32:46.758Z,12.00
2023-04-23T00:36:49.536Z,12.07
2023-04-23T00:40:50.938Z,12.23
2023-04-23T00:44:52.631Z,13.03
2023-04-23T00:48:56.352Z,12.20
2023-04-23T00:52:59.706Z,11.87
2023-04-23T00:57:01.767Z,13.47
2023-04-23T01:01:03.336Z,11.90
2023-04-23T01:05:07.311Z,13.80
2023-04-23T01:09:10.726Z,15.23
2023-04-23T01:13:12.952Z,13.77
2023-04-23T01:17:14.403Z,14.07
2023-04-23T01:21:17.876Z,13.03
2023-04-23T01:25:20.885Z,15.77
2023-04-23T01:29:22.387Z,16.07
2023-04-23T01:33:23.916Z,15.80
2023-04-23T01:37:26.826Z,16.93
2023-04-23T01:41:29.862Z,16.63
2023-04-23T01:45:31.645Z,16.97
2023-04-23T01:49:33.140Z,16.07
2023-04-23T01:53:34.619Z,16.90
2023-04-23T01:57:37.423Z,17.50
2023-04-23T02:01:42.614Z,16.57
2023-04-23T02:05:44.793Z,18.13
2023-04-23T02:09:46.201Z,17.83
2023-04-23T02:13:48.912Z,16.50
2023-04-23T02:17:50.358Z,18.20
2023-04-23T02:21:51.789Z,18.07
2023-04-23T02:25:53.205Z,17.27
2023-04-23T02:29:55.987Z,18.87
2023-04-23T02:33:57.479Z,19.23
2023-04-23T02:37:58.900Z,16.47
2023-04-23T02:42:00.738Z,18.67
2023-04-23T02:46:03.468Z,15.33
2023-04-23T02:50:06.237Z,14.50
2023-04-23T02:54:07.742Z,16.60
2023-04-23T02:58:09.158Z,14.33
2023-04-23T03:02:13.026Z,16.97
2023-04-23T03:06:14.969Z,17.03
2023-04-23T03:10:16.604Z,15.20
2023-04-23T03:14:18.019Z,13.87
2023-04-23T03:18:21.070Z,17.07
2023-04-23T03:22:22.502Z,12.73
2023-04-23T03:26:23.976Z,13.43
2023-04-23T03:30:25.468Z,12.73
2023-04-23T03:34:28.185Z,11.90
2023-04-23T03:38:29.666Z,13.30
2023-04-23T03:42:31.074Z,12.57
2023-04-23T03:46:32.805Z,13.57
2023-04-23T03:50:35.840Z,13.80
2023-04-23T03:54:37.285Z,17.50
2023-04-23T03:58:38.677Z,14.63
2023-04-23T04:02:41.324Z,13.47
2023-04-23T04:06:44.470Z,12.80
2023-04-23T04:10:46.399Z,12.47
2023-04-23T04:14:48.021Z,11.97
2023-04-23T04:18:49.399Z,12.47
2023-04-23T04:22:52.380Z,12.80
2023-04-23T04:26:53.754Z,12.90
2023-04-23T04:30:55.484Z,11.23
2023-04-23T04:34:57.044Z,10.57
2023-04-23T04:38:59.763Z,14.10
2023-04-23T04:43:01.152Z,9.67
2023-04-23T04:47:02.585Z,12.87
2023-04-23T04:51:04.337Z,12.30
2023-04-23T04:55:08.651Z,12.13
2023-04-23T04:59:10.077Z,10.77
2023-04-23T05:03:14.303Z,11.93
2023-04-23T05:07:16.046Z,10.13
2023-04-23T05:11:19.729Z,10.20
2023-04-23T05:15:21.138Z,11.33
2023-04-23T05:19:22.751Z,9.43
2023-04-23T05:23:25.684Z,8.53
2023-04-23T05:27:30.913Z,9.97
2023-04-23T05:31:32.430Z,8.43
2023-04-23T05:35:33.905Z,8.30
2023-04-23T05:39:35.494Z,10.53
2023-04-23T05:43:38.290Z,8.47
2023-04-23T05:47:39.744Z,10.23
2023-04-23T05:51:41.297Z,8.63
2023-04-23T05:55:42.980Z,7.80
2023-04-23T05:59:45.743Z,7.40
2023-04-23T06:03:47.443Z,8.83
2023-04-23T06:07:49.215Z,8.30
2023-04-23T06:11:51.937Z,7.03
2023-04-23T06:15:55.455Z,6.67
2023-04-23T06:19:56.957Z,8.63
2023-04-23T06:23:58.388Z,8.30
2023-04-23T06:27:59.765Z,6.17
2023-04-23T06:32:03.215Z,6.27
2023-04-23T06:36:05.623Z,5.07
2023-04-23T06:40:08.354Z,5.03
2023-04-23T06:44:09.834Z,7.30
2023-04-23T06:48:13.094Z,5.13
2023-04-23T06:52:14.501Z,5.50
2023-04-23T06:56:15.854Z,3.90
2023-04-23T07:00:17.887Z,4.93
2023-04-23T07:04:20.977Z,4.63
2023-04-23T07:08:22.639Z,4.43
2023-04-23T07:12:24.377Z,4.03
2023-04-23T07:16:25.937Z,3.83
2023-04-23T07:20:29.053Z,5.37
2023-04-23T07:24:30.507Z,3.33
2023-04-23T07:28:32.242Z,3.83
2023-04-23T07:32:33.709Z,3.43
2023-04-23T07:36:37.281Z,3.53
2023-04-23T07:40:38.801Z,3.57
2023-04-23T07:44:40.202Z,4.27
2023-04-23T07:48:42.748Z,4.00
2023-04-23T07:52:45.532Z,3.23
2023-04-23T07:56:46.939Z,4.57
2023-04-23T08:00:48.320Z,3.27
2023-04-23T08:04:49.915Z,4.83
2023-04-23T08:08:52.774Z,5.07
2023-04-23T08:12:54.334Z,7.87
2023-04-23T08:16:57.167Z,10.13
2023-04-23T08:20:58.808Z,4.07
2023-04-23T08:25:01.605Z,3.07
2023-04-23T08:29:03.088Z,5.10
2023-04-23T08:33:04.602Z,2.73
2023-04-23T08:37:11.737Z,3.83
2023-04-23T08:41:23.068Z,3.53
2023-04-23T08:45:25.165Z,5.90
2023-04-23T08:49:32.982Z,3.60
2023-04-23T08:53:34.460Z,2.70
2023-04-23T08:57:39.872Z,3.83
2023-04-23T09:01:41.906Z,4.00
2023-04-23T09:05:43.923Z,3.40
2023-04-23T09:09:45.520Z,2.33
2023-04-23T09:13:48.561Z,5.03
2023-04-23T09:17:50.076Z,3.67
2023-04-23T09:21:52.508Z,3.80
2023-04-23T09:25:53.938Z,2.70
2023-04-23T09:29:56.680Z,1.77
2023-04-23T09:33:58.159Z,3.37
2023-04-23T09:38:01.214Z,3.67
2023-04-23T09:42:04.660Z,2.83
2023-04-23T09:46:07.516Z,3.07
2023-04-23T09:50:09.865Z,2.77
2023-04-23T09:54:12.601Z,4.17
2023-04-23T09:58:15.613Z,5.17
2023-04-23T10:02:18.829Z,3.00
2023-04-23T10:10:36.347Z,4.30
2023-04-23T10:14:46.141Z,2.50
2023-04-23T10:18:50.552Z,2.60
2023-04-23T10:22:54.485Z,1.90
2023-04-23T10:27:01.281Z,2.60
2023-04-23T10:31:05.313Z,4.13
2023-04-23T10:35:09.623Z,2.93
2023-04-23T10:39:15.848Z,1.53
2023-04-23T10:43:23.713Z,1.90
2023-04-23T10:47:25.140Z,2.90
2023-04-23T10:52:17.132Z,2.27
2023-04-23T10:56:05.252Z,2.60
2023-04-23T11:00:08.411Z,3.60
2023-04-23T11:04:23.423Z,1.73
2023-04-23T11:08:26.310Z,7.20
2023-04-23T11:12:32.558Z,3.83
2023-04-23T11:16:34.022Z,2.23
2023-04-23T11:20:35.594Z,4.00
2023-04-23T11:24:39.919Z,3.43
2023-04-23T11:28:43.525Z,2.30
2023-04-23T11:32:46.288Z,5.20
2023-04-23T11:36:51.070Z,2.63
2023-04-23T11:40:54.328Z,3.60
2023-04-23T11:44:55.764Z,4.63
2023-04-23T11:48:59.214Z,3.23
2023-04-23T11:53:05.402Z,2.87
2023-04-23T11:57:08.284Z,3.23
2023-04-23T12:01:11.120Z,6.47
2023-04-23T12:05:12.868Z,2.63
2023-04-23T12:09:15.596Z,2.50
2023-04-23T12:13:21.040Z,2.40
2023-04-23T12:17:22.481Z,3.83
2023-04-23T12:21:26.084Z,1.97
2023-04-23T12:25:27.770Z,2.93
2023-04-23T12:29:32.547Z,3.37
2023-04-23T12:33:34.030Z,2.80
2023-04-23T12:37:36.616Z,5.80
2023-04-23T12:41:37.995Z,4.67
2023-04-23T12:45:40.763Z,3.63
2023-04-23T12:49:42.550Z,2.20
2023-04-23T12:53:44.087Z,6.83
2023-04-23T12:57:45.551Z,4.63
2023-04-23T13:01:48.458Z,5.37
2023-04-23T13:05:49.914Z,2.37
2023-04-23T13:09:51.646Z,3.63
2023-04-23T13:13:53.114Z,3.03
2023-04-23T13:17:55.914Z,2.77
2023-04-23T13:21:57.419Z,2.93
2023-04-23T13:25:58.869Z,2.47
2023-04-23T13:30:00.296Z,2.10
2023-04-23T13:34:03.084Z,4.40
2023-04-23T13:38:04.694Z,2.77
2023-04-23T13:42:09.639Z,2.83
2023-04-23T13:46:11.780Z,7.23
2023-04-23T13:50:14.627Z,2.40
2023-04-23T13:54:16.067Z,2.47
2023-04-23T13:58:18.024Z,2.27
2023-04-23T14:02:19.527Z,1.40
2023-04-23T14:06:22.619Z,2.60
2023-04-23T14:10:24.293Z,3.23
2023-04-23T14:14:25.700Z,4.47
2023-04-23T14:18:27.155Z,3.13
2023-04-23T14:22:29.959Z,2.60
2023-04-23T14:26:47.266Z,4.37
2023-04-23T14:30:54.460Z,4.60
2023-04-23T14:34:55.897Z,3.83
2023-04-23T14:38:58.638Z,3.57
2023-04-23T14:43:12.180Z,3.77
2023-04-23T14:47:16.469Z,2.33
2023-04-23T14:51:18.009Z,2.73
2023-04-23T14:55:21.479Z,3.43
2023-04-23T14:59:23.484Z,3.67
2023-04-23T15:03:25.044Z,6.27
2023-04-23T15:07:26.560Z,2.40
2023-04-23T15:11:29.445Z,3.40
2023-04-23T15:15:45.016Z,2.23
2023-04-23T15:19:46.820Z,1.80
2023-04-23T15:23:48.242Z,7.70
2023-04-23T15:27:51.136Z,3.00
2023-04-23T15:31:52.672Z,4.97
2023-04-23T15:35:54.086Z,3.10
2023-04-23T15:39:57.080Z,2.77
2023-04-23T15:44:01.580Z,4.40
2023-04-23T15:48:03.270Z,5.20
2023-04-23T15:52:04.798Z,5.10
2023-04-23T15:56:06.242Z,3.13
2023-04-23T16:00:10.416Z,4.27
2023-04-23T16:04:12.436Z,3.23
2023-04-23T16:08:14.125Z,4.07
2023-04-23T16:12:16.591Z,4.93
2023-04-23T16:16:20.863Z,2.50
2023-04-23T16:20:22.648Z,2.80
2023-04-23T16:24:24.068Z,3.30
2023-04-23T16:28:25.771Z,3.90
2023-04-23T16:32:28.587Z,1.30
2023-04-23T16:36:30.141Z,4.33
2023-04-23T16:40:31.780Z,2.97
2023-04-23T16:44:33.241Z,2.20
2023-04-23T16:48:36.045Z,1.83
2023-04-23T16:52:37.475Z,2.80
2023-04-23T16:56:39.279Z,2.27
2023-04-23T17:00:40.727Z,3.47
2023-04-23T17:04:43.844Z,3.30
2023-04-23T17:08:45.773Z,2.90
2023-04-23T17:12:47.230Z,5.70
2023-04-23T17:16:48.709Z,2.83
2023-04-23T17:20:51.607Z,3.07
2023-04-23T17:24:53.260Z,5.20
2023-04-23T17:28:54.758Z,4.13
2023-04-23T17:32:56.240Z,6.90
2023-04-23T17:36:59.084Z,4.73
2023-04-23T17:41:00.542Z,1.43
2023-04-23T17:45:02.069Z,2.67
2023-04-23T17:49:03.480Z,1.90
2023-04-23T17:53:06.285Z,2.33
2023-04-23T17:57:07.736Z,4.20
2023-04-23T18:01:09.248Z,4.43
2023-04-23T18:05:12.572Z,3.40
2023-04-23T18:09:15.361Z,2.30
2023-04-23T18:13:16.972Z,2.50
2023-04-23T18:17:18.393Z,3.40
2023-04-23T18:21:19.912Z,4.67
2023-04-23T18:25:22.985Z,6.70
2023-04-23T18:29:24.952Z,9.27
2023-04-23T18:33:30.908Z,2.80
2023-04-23T18:37:38.198Z,5.67
2023-04-23T18:41:41.039Z,4.07
2023-04-23T18:45:42.616Z,4.97
2023-04-23T18:49:46.680Z,4.03
2023-04-23T18:53:49.230Z,2.77
2023-04-23T18:57:52.306Z,5.33
2023-04-23T19:01:55.062Z,2.03
2023-04-23T19:05:56.925Z,5.23
2023-04-23T19:09:58.317Z,4.23
2023-04-23T19:14:01.272Z,3.67
2023-04-23T19:18:02.876Z,2.80
2023-04-23T19:22:04.504Z,1.10
2023-04-23T19:26:05.939Z,2.40
2023-04-23T19:30:09.670Z,2.03
2023-04-23T19:34:11.120Z,1.63
2023-04-23T19:38:12.602Z,1.23
2023-04-23T19:42:14.053Z,2.33
2023-04-23T19:46:17.032Z,2.77
2023-04-23T19:50:18.700Z,2.93
2023-04-23T19:54:21.416Z,1.03
2023-04-23T19:58:23.676Z,2.17
2023-04-23T20:02:26.796Z,1.57
2023-04-23T20:06:28.216Z,1.00
2023-04-23T20:10:29.797Z,2.37
2023-04-23T20:14:31.211Z,0.60
2023-04-23T20:18:33.972Z,0.90
2023-04-23T20:22:35.425Z,0.77
2023-04-23T20:26:38.401Z,1.33
2023-04-23T20:30:40.904Z,2.07
2023-04-23T20:34:43.981Z,3.50
2023-04-23T20:38:45.528Z,0.50
2023-04-23T20:42:47.209Z,0.40
2023-04-23T20:46:48.938Z,1.27
2023-04-23T20:50:51.814Z,1.83
2023-04-23T20:54:53.536Z,2.20
2023-04-23T20:58:56.593Z,1.43
2023-04-23T21:02:58.263Z,0.50
2023-04-23T21:07:01.528Z,0.50
2023-04-23T21:11:03.219Z,0.57
2023-04-23T21:15:05.524Z,0.93
2023-04-23T21:19:07.090Z,1.47
2023-04-23T21:23:10.618Z,1.17
2023-04-23T21:27:15.403Z,0.40
2023-04-23T21:31:28.021Z,0.60
2023-04-23T21:35:29.636Z,1.33
2023-04-23T21:39:32.615Z,0.60
2023-04-23T21:43:34.130Z,0.50
2023-04-23T21:47:35.670Z,0.60
2023-04-23T21:51:37.285Z,0.97
2023-04-23T21:55:40.153Z,0.73
2023-04-23T21:59:41.989Z,0.60
2023-04-23T22:03:43.849Z,0.50
2023-04-23T22:07:45.726Z,1.13
2023-04-23T22:12:01.084Z,0.60
2023-04-23T22:16:10.730Z,1.03
2023-04-23T22:20:18.830Z,2.10
2023-04-23T22:24:20.419Z,0.40
2023-04-23T22:28:23.249Z,0.50
2023-04-23T22:32:24.817Z,0.47
2023-04-23T22:36:26.386Z,0.40
2023-04-23T22:40:27.799Z,2.40
2023-04-23T22:44:30.563Z,0.40
2023-04-23T22:48:32.170Z,2.57
2023-04-23T22:52:33.557Z,1.17
2023-04-23T22:56:35.357Z,4.23
2023-04-23T23:00:38.191Z,0.97
2023-04-23T23:04:39.644Z,1.30
2023-04-23T23:08:41.195Z,0.60
2023-04-23T23:12:42.870Z,0.67
2023-04-23T23:16:45.739Z,2.00
2023-04-23T23:20:47.251Z,0.60
2023-04-23T23:24:48.757Z,3.00
2023-04-23T23:28:50.177Z,2.53
2023-04-23T23:32:53.389Z,2.10
2023-04-23T23:36:54.943Z,3.00
2023-04-23T23:40:56.510Z,1.43
2023-04-23T23:44:58.072Z,2.70
2023-04-23T23:49:00.980Z,2.60
2023-04-23T23:53:02.482Z,2.57
2023-04-23T23:57:03.967Z,0.80
